Armourdale, North Dakota
Current Conditions -  °F | °C
As of 1:15 AM on Saturday 25 Oct 2014 (Local Time) from K06D Reporting Station
Clear Clear  
Wind Chill: 42°   Ceiling: Unl
Heat Index: 48°   Visibility: 10mi
Dew Point: 28°   Wind: 15mph
Humidity: 46%   Direction: 300°WNW
Pressure: 29.97"   Gusts: 23mph
Location:  48.8584°N, 99.1311°W
Report Text: K06D 250615Z AUTO 30013G20KT 10SM CLR 09/M02 A2997 RMK AO2
Loading
Personal Weather Stations






























Interactive Weather Map New forecast layout! Learn more

10-Day Weather Forecast

Advertisements
Track Severe Weather on mobile